createdAt,value
2023-04-18T00:01:28.883Z,10.59
2023-04-18T00:04:34.049Z,10.60
2023-04-18T00:07:38.097Z,10.59
2023-04-18T00:10:40.656Z,10.55
2023-04-18T00:13:43.212Z,10.58
2023-04-18T00:16:46.271Z,10.50
2023-04-18T00:19:48.905Z,10.53
2023-04-18T00:22:53.270Z,10.41
2023-04-18T00:25:55.762Z,10.43
2023-04-18T00:28:58.377Z,10.46
2023-04-18T00:32:00.915Z,10.50
2023-04-18T00:35:04.122Z,10.49
2023-04-18T00:38:07.951Z,10.52
2023-04-18T00:41:10.449Z,10.50
2023-04-18T00:44:13.146Z,10.45
2023-04-18T00:47:16.785Z,10.54
2023-04-18T00:50:19.879Z,10.52
2023-04-18T00:53:23.995Z,10.40
2023-04-18T00:56:26.773Z,10.35
2023-04-18T00:59:29.288Z,10.36
2023-04-18T01:02:32.023Z,10.43
2023-04-18T01:05:35.082Z,10.44
2023-04-18T01:08:39.059Z,10.42
2023-04-18T01:11:41.689Z,10.48
2023-04-18T01:14:44.285Z,10.38
2023-04-18T01:17:47.279Z,10.35
2023-04-18T01:20:51.346Z,10.40
2023-04-18T01:23:55.367Z,10.38
2023-04-18T01:26:59.700Z,10.40
2023-04-18T01:30:02.299Z,10.42
2023-04-18T01:33:05.891Z,10.41
2023-04-18T01:36:08.463Z,10.43
2023-04-18T01:39:11.011Z,10.31
2023-04-18T01:42:14.995Z,10.29
2023-04-18T01:45:18.134Z,10.30
2023-04-18T01:48:20.659Z,10.23
2023-04-18T01:51:23.476Z,10.19
2023-04-18T01:54:26.015Z,10.18
2023-04-18T01:57:29.903Z,10.16
2023-04-18T02:00:32.439Z,10.24
2023-04-18T02:03:35.135Z,10.20
2023-04-18T02:06:37.839Z,10.09
2023-04-18T02:09:40.400Z,9.93
2023-04-18T02:12:44.297Z,10.04
2023-04-18T02:15:47.020Z,10.06
2023-04-18T02:18:52.417Z,9.99
2023-04-18T02:21:55.489Z,10.02
2023-04-18T02:24:58.054Z,10.09
2023-04-18T02:28:02.005Z,10.12
2023-04-18T02:31:04.514Z,9.98
2023-04-18T02:34:07.488Z,9.81
2023-04-18T02:37:10.053Z,9.93
2023-04-18T02:40:13.976Z,9.96
2023-04-18T02:43:17.835Z,9.90
2023-04-18T02:46:20.397Z,9.87
2023-04-18T02:49:23.050Z,9.86
2023-04-18T02:52:26.132Z,9.91
2023-04-18T02:55:28.717Z,9.83
2023-04-18T02:58:34.693Z,9.82
2023-04-18T03:01:37.452Z,9.78
2023-04-18T03:04:40.158Z,9.79
2023-04-18T03:07:42.738Z,9.82
2023-04-18T03:10:45.327Z,9.82
2023-04-18T03:13:49.254Z,9.83
2023-04-18T03:16:54.599Z,9.73
2023-04-18T03:19:57.845Z,9.73
2023-04-18T03:23:00.840Z,9.64
2023-04-18T03:26:03.327Z,9.68
2023-04-18T03:29:07.296Z,9.71
2023-04-18T03:32:09.816Z,9.71
2023-04-18T03:35:12.611Z,9.53
2023-04-18T03:38:15.266Z,9.66
2023-04-18T03:41:17.719Z,9.55
2023-04-18T03:44:21.607Z,9.51
2023-04-18T03:47:24.164Z,9.53
2023-04-18T03:50:26.855Z,9.44
2023-04-18T03:53:30.071Z,9.53
2023-04-18T03:56:33.109Z,9.55
2023-04-18T03:59:37.244Z,9.62
2023-04-18T04:02:39.961Z,9.61
2023-04-18T04:05:42.687Z,9.70
2023-04-18T04:08:45.259Z,9.67
2023-04-18T04:11:48.453Z,9.65
2023-04-18T04:14:52.396Z,9.56
2023-04-18T04:17:54.993Z,9.59
2023-04-18T04:20:57.994Z,9.59
2023-04-18T04:24:01.376Z,9.71
2023-04-18T04:27:04.141Z,9.63
2023-04-18T04:30:11.850Z,9.62
2023-04-18T04:33:15.782Z,9.49
2023-04-18T04:36:19.193Z,9.61
2023-04-18T04:39:24.617Z,9.67
2023-04-18T04:42:28.544Z,9.78
2023-04-18T04:45:33.104Z,9.80
2023-04-18T04:48:35.788Z,9.71
2023-04-18T04:51:38.417Z,9.68
2023-04-18T04:54:41.045Z,9.55
2023-04-18T04:57:44.712Z,9.67
2023-04-18T05:00:50.784Z,9.78
2023-04-18T05:03:53.626Z,9.75
2023-04-18T05:06:56.516Z,9.77
2023-04-18T05:09:59.305Z,9.80
2023-04-18T05:13:02.073Z,9.73
2023-04-18T05:16:06.756Z,9.77
2023-04-18T05:19:09.408Z,9.84
2023-04-18T05:22:12.110Z,9.93
2023-04-18T05:25:14.713Z,10.00
2023-04-18T05:28:17.328Z,10.05
2023-04-18T05:31:21.778Z,10.20
2023-04-18T05:34:24.630Z,10.29
2023-04-18T05:37:27.171Z,10.34
2023-04-18T05:40:30.394Z,10.38
2023-04-18T05:43:33.079Z,10.34
2023-04-18T05:46:37.115Z,10.54
2023-04-18T05:49:39.791Z,10.66
2023-04-18T05:52:42.535Z,10.60
2023-04-18T05:55:46.639Z,10.55
2023-04-18T05:58:51.216Z,10.58
2023-04-18T06:01:55.447Z,10.81
2023-04-18T06:04:58.445Z,10.90
2023-04-18T06:08:01.181Z,10.93
2023-04-18T06:11:04.267Z,11.04
2023-04-18T06:14:07.939Z,11.03
2023-04-18T06:17:12.652Z,11.19
2023-04-18T06:20:15.356Z,11.16
2023-04-18T06:23:17.948Z,10.98
2023-04-18T06:26:20.796Z,10.84
2023-04-18T06:29:23.385Z,11.01
2023-04-18T06:32:27.642Z,11.08
2023-04-18T06:35:32.027Z,11.28
2023-04-18T06:38:34.720Z,11.54
2023-04-18T06:41:37.421Z,11.64
2023-04-18T06:44:40.094Z,11.75
2023-04-18T06:47:44.191Z,11.80
2023-04-18T06:50:46.967Z,11.57
2023-04-18T06:53:52.704Z,11.26
2023-04-18T06:56:55.922Z,11.25
2023-04-18T06:59:58.506Z,11.48
2023-04-18T07:03:06.577Z,11.51
2023-04-18T07:06:10.978Z,11.22
2023-04-18T07:09:13.708Z,11.21
2023-04-18T07:12:16.374Z,11.16
2023-04-18T07:15:19.312Z,11.63
2023-04-18T07:18:34.259Z,11.93
2023-04-18T07:21:43.066Z,11.97
2023-04-18T07:24:45.714Z,12.20
2023-04-18T07:27:48.512Z,12.06
2023-04-18T07:30:51.451Z,11.84
2023-04-18T07:33:56.217Z,11.81
2023-04-18T07:36:58.791Z,11.91
2023-04-18T07:40:01.323Z,11.87
2023-04-18T07:43:03.896Z,11.87
2023-04-18T07:46:07.222Z,12.01
2023-04-18T07:49:11.313Z,12.10
2023-04-18T07:52:14.285Z,12.28
2023-04-18T07:55:17.112Z,12.40
2023-04-18T07:58:19.741Z,12.73
2023-04-18T08:01:24.305Z,12.93
2023-04-18T08:04:30.079Z,13.43
2023-04-18T08:07:33.281Z,13.89
2023-04-18T08:10:35.912Z,14.45
2023-04-18T08:13:38.776Z,14.68
2023-04-18T08:16:41.512Z,14.64
2023-04-18T08:19:46.268Z,14.79
2023-04-18T08:23:05.110Z,14.25
2023-04-18T08:26:09.400Z,14.33
2023-04-18T08:29:12.328Z,14.16
2023-04-18T08:32:15.162Z,14.01
2023-04-18T08:35:19.244Z,14.54
2023-04-18T08:38:21.943Z,14.98
2023-04-18T08:41:24.804Z,15.30
2023-04-18T08:44:28.671Z,15.68
2023-04-18T08:47:31.687Z,15.78
2023-04-18T08:50:36.231Z,16.49
2023-04-18T08:53:39.354Z,17.35
2023-04-18T08:56:42.246Z,17.58
2023-04-18T08:59:48.356Z,17.68
2023-04-18T09:02:56.532Z,17.45
2023-04-18T09:06:13.988Z,16.59
2023-04-18T09:09:16.608Z,16.04
2023-04-18T09:12:23.249Z,15.48
2023-04-18T09:15:29.124Z,15.14
2023-04-18T09:18:32.475Z,15.12
2023-04-18T09:21:38.369Z,15.03
2023-04-18T09:24:49.095Z,14.73
2023-04-18T09:27:51.951Z,14.73
2023-04-18T09:30:56.092Z,14.72
2023-04-18T09:34:00.617Z,14.66
2023-04-18T09:37:09.165Z,14.24
2023-04-18T09:40:19.046Z,14.53
2023-04-18T09:43:22.486Z,15.11
2023-04-18T09:46:25.387Z,15.05
2023-04-18T09:49:28.424Z,15.18
2023-04-18T09:52:35.973Z,15.55
2023-04-18T09:55:40.075Z,16.24
2023-04-18T09:58:43.132Z,15.92
2023-04-18T10:01:48.340Z,16.76
2023-04-18T10:04:52.205Z,17.47
2023-04-18T10:07:56.597Z,18.06
2023-04-18T10:10:59.475Z,18.38
2023-04-18T10:14:04.684Z,18.27
2023-04-18T10:17:07.398Z,17.35
2023-04-18T10:20:11.282Z,17.54
2023-04-18T10:23:37.294Z,18.42
2023-04-18T10:26:47.517Z,18.87
2023-04-18T10:29:52.006Z,18.89
2023-04-18T10:32:56.377Z,18.73
2023-04-18T10:36:00.689Z,18.96
2023-04-18T10:39:22.375Z,19.26
2023-04-18T10:42:58.594Z,19.16
2023-04-18T10:46:23.965Z,19.21
2023-04-18T10:49:33.400Z,19.70
2023-04-18T10:52:36.105Z,19.02
2023-04-18T10:55:45.092Z,18.56
2023-04-18T10:58:51.494Z,19.12
2023-04-18T11:01:57.811Z,19.27
2023-04-18T11:05:02.825Z,19.51
2023-04-18T11:08:06.341Z,18.79
2023-04-18T11:11:11.353Z,19.06
2023-04-18T11:14:14.299Z,18.49
2023-04-18T11:17:20.996Z,18.10
2023-04-18T11:20:23.859Z,17.62
2023-04-18T11:23:26.574Z,17.77
2023-04-18T11:26:30.741Z,18.36
2023-04-18T11:29:33.574Z,18.38
2023-04-18T11:32:36.446Z,18.57
2023-04-18T11:35:39.922Z,19.03
2023-04-18T11:38:42.688Z,18.57
2023-04-18T11:41:50.447Z,18.32
2023-04-18T11:44:53.163Z,18.08
2023-04-18T11:47:58.141Z,16.92
2023-04-18T11:51:01.106Z,16.44
2023-04-18T11:54:04.049Z,16.07
2023-04-18T11:57:19.735Z,16.29
2023-04-18T12:00:33.554Z,17.03
2023-04-18T12:03:36.852Z,17.68
2023-04-18T12:06:49.046Z,17.99
2023-04-18T12:09:53.468Z,17.99
2023-04-18T12:12:59.768Z,17.23
2023-04-18T12:16:03.461Z,17.59
2023-04-18T12:19:11.248Z,17.34
2023-04-18T12:22:16.890Z,17.55
2023-04-18T12:25:26.253Z,17.87
2023-04-18T12:28:32.361Z,18.09
2023-04-18T12:31:35.028Z,18.44
2023-04-18T12:34:37.750Z,19.06
2023-04-18T12:37:40.740Z,19.16
2023-04-18T12:40:43.485Z,19.32
2023-04-18T12:43:47.442Z,18.97
2023-04-18T12:46:49.984Z,18.76
2023-04-18T12:49:52.760Z,19.21
2023-04-18T12:52:58.703Z,18.95
2023-04-18T12:56:01.460Z,19.29
2023-04-18T12:59:05.791Z,19.22
2023-04-18T13:02:08.488Z,19.54
2023-04-18T13:05:12.407Z,19.18
2023-04-18T13:08:17.617Z,19.76
2023-04-18T13:11:22.586Z,19.96
2023-04-18T13:14:26.770Z,19.13
2023-04-18T13:17:29.609Z,19.76
2023-04-18T13:20:32.509Z,20.12
2023-04-18T13:23:35.439Z,19.78
2023-04-18T13:26:38.089Z,19.53
2023-04-18T13:29:43.470Z,19.50
2023-04-18T13:32:46.095Z,19.29
2023-04-18T13:35:48.823Z,19.63
2023-04-18T13:38:52.245Z,20.47
2023-04-18T13:41:55.326Z,20.70
2023-04-18T13:45:00.033Z,19.61
2023-04-18T13:48:02.730Z,19.58
2023-04-18T13:51:07.072Z,19.28
2023-04-18T13:54:09.656Z,18.86
2023-04-18T13:57:12.496Z,18.55
2023-04-18T14:00:19.138Z,18.14
2023-04-18T14:03:21.979Z,18.01
2023-04-18T14:06:24.881Z,18.25
2023-04-18T14:09:27.878Z,18.09
2023-04-18T14:12:31.365Z,17.80
2023-04-18T14:15:36.145Z,18.01
2023-04-18T14:18:39.290Z,18.49
2023-04-18T14:21:41.963Z,18.53
2023-04-18T14:24:44.654Z,18.52
2023-04-18T14:27:48.782Z,18.14
2023-04-18T14:30:55.246Z,17.94
2023-04-18T14:33:58.061Z,18.20
2023-04-18T14:37:01.111Z,18.66
2023-04-18T14:40:05.458Z,18.29
2023-04-18T14:43:08.186Z,18.03
2023-04-18T14:46:17.150Z,18.20
2023-04-18T14:49:20.028Z,18.69
2023-04-18T14:52:22.672Z,18.83
2023-04-18T14:55:25.640Z,19.08
2023-04-18T14:58:28.224Z,18.84
2023-04-18T15:01:32.349Z,18.69
2023-04-18T15:04:35.126Z,18.08
2023-04-18T15:07:38.020Z,18.14
2023-04-18T15:10:42.683Z,18.58
2023-04-18T15:13:47.516Z,18.99
2023-04-18T15:16:52.068Z,19.23
2023-04-18T15:19:54.723Z,19.07
2023-04-18T15:22:57.731Z,18.90
2023-04-18T15:26:00.498Z,18.77
2023-04-18T15:29:03.859Z,18.75
2023-04-18T15:32:08.008Z,18.14
2023-04-18T15:35:10.829Z,18.05
2023-04-18T15:38:14.382Z,17.99
2023-04-18T15:41:17.098Z,17.51
2023-04-18T15:44:19.850Z,17.22
2023-04-18T15:47:24.140Z,17.29
2023-04-18T15:50:27.097Z,17.25
2023-04-18T15:53:29.799Z,17.09
2023-04-18T15:56:33.820Z,16.97
2023-04-18T15:59:37.126Z,16.90
2023-04-18T16:02:41.117Z,16.69
2023-04-18T16:05:43.883Z,16.75
2023-04-18T16:08:46.562Z,16.83
2023-04-18T16:11:49.394Z,16.82
2023-04-18T16:14:52.112Z,16.46
2023-04-18T16:17:56.250Z,16.49
2023-04-18T16:20:59.392Z,16.50
2023-04-18T16:24:02.207Z,16.26
2023-04-18T16:27:05.669Z,16.33
2023-04-18T16:30:10.123Z,16.40
2023-04-18T16:33:14.590Z,16.18
2023-04-18T16:36:17.315Z,16.06
2023-04-18T16:39:19.892Z,16.12
2023-04-18T16:42:22.612Z,16.00
2023-04-18T16:45:25.714Z,15.94
2023-04-18T16:48:30.147Z,15.89
2023-04-18T16:51:33.837Z,15.88
2023-04-18T16:54:36.953Z,15.74
2023-04-18T16:57:39.840Z,15.74
2023-04-18T17:00:42.720Z,15.70
2023-04-18T17:03:46.930Z,15.46
2023-04-18T17:06:51.880Z,15.38
2023-04-18T17:09:54.753Z,15.34
2023-04-18T17:12:57.484Z,15.36
2023-04-18T17:16:00.090Z,15.44
2023-04-18T17:19:03.959Z,15.47
2023-04-18T17:22:06.609Z,15.50
2023-04-18T17:25:10.254Z,15.50
2023-04-18T17:28:14.327Z,15.45
2023-04-18T17:31:17.214Z,15.47
2023-04-18T17:34:21.428Z,15.41
2023-04-18T17:37:24.314Z,15.33
2023-04-18T17:40:27.802Z,15.28
2023-04-18T17:43:30.952Z,15.23
2023-04-18T17:46:33.561Z,15.02
2023-04-18T17:49:37.476Z,15.11
2023-04-18T17:52:40.044Z,15.08
2023-04-18T17:55:42.542Z,14.98
2023-04-18T17:58:45.080Z,14.99
2023-04-18T18:01:47.673Z,14.88
2023-04-18T18:04:51.746Z,14.87
2023-04-18T18:07:56.204Z,14.80
2023-04-18T18:10:59.237Z,14.80
2023-04-18T18:14:02.022Z,14.77
2023-04-18T18:17:06.154Z,14.72
2023-04-18T18:20:11.649Z,14.72
2023-04-18T18:23:14.138Z,14.64
2023-04-18T18:26:16.655Z,14.56
2023-04-18T18:29:19.740Z,14.52
2023-04-18T18:32:22.652Z,14.40
2023-04-18T18:35:26.581Z,14.35
2023-04-18T18:38:29.131Z,14.35
2023-04-18T18:41:31.696Z,14.28
2023-04-18T18:44:34.426Z,14.17
2023-04-18T18:47:39.605Z,14.14
2023-04-18T18:50:43.992Z,14.11
2023-04-18T18:53:47.043Z,14.05
2023-04-18T18:56:49.621Z,13.90
2023-04-18T18:59:54.513Z,13.93
2023-04-18T19:02:58.338Z,13.92
2023-04-18T19:06:03.799Z,13.90
2023-04-18T19:09:07.435Z,13.88
2023-04-18T19:12:10.130Z,13.90
2023-04-18T19:15:13.088Z,13.85
2023-04-18T19:18:15.739Z,13.81
2023-04-18T19:21:20.178Z,13.80
2023-04-18T19:24:22.661Z,13.80
2023-04-18T19:27:25.201Z,13.80
2023-04-18T19:30:27.708Z,13.69
2023-04-18T19:33:30.307Z,13.66
2023-04-18T19:36:34.236Z,13.67
2023-04-18T19:39:36.730Z,13.63
2023-04-18T19:42:39.357Z,13.63
2023-04-18T19:45:41.898Z,13.60
2023-04-18T19:48:44.418Z,13.56
2023-04-18T19:51:48.889Z,13.56
2023-04-18T19:54:52.963Z,13.47
2023-04-18T19:57:56.569Z,13.47
2023-04-18T20:00:58.913Z,13.52
2023-04-18T20:04:01.828Z,13.45
2023-04-18T20:07:06.407Z,13.39
2023-04-18T20:10:10.393Z,13.45
2023-04-18T20:13:13.039Z,13.40
2023-04-18T20:16:16.773Z,13.44
2023-04-18T20:19:19.495Z,13.46
2023-04-18T20:22:24.747Z,13.45
2023-04-18T20:25:27.371Z,13.47
2023-04-18T20:28:30.076Z,13.36
2023-04-18T20:31:32.713Z,13.33
2023-04-18T20:34:35.944Z,13.31
2023-04-18T20:37:41.458Z,13.34
2023-04-18T20:40:44.967Z,13.34
2023-04-18T20:43:47.681Z,13.36
2023-04-18T20:46:50.378Z,13.26
2023-04-18T20:49:52.885Z,13.28
2023-04-18T20:52:56.714Z,13.29
2023-04-18T20:55:59.350Z,13.26
2023-04-18T20:59:01.840Z,13.19
2023-04-18T21:02:04.466Z,13.06
2023-04-18T21:05:07.678Z,13.20
2023-04-18T21:08:11.761Z,13.20
2023-04-18T21:11:14.327Z,13.18
2023-04-18T21:14:17.284Z,13.16
2023-04-18T21:17:20.125Z,13.11
2023-04-18T21:20:22.724Z,13.08
2023-04-18T21:23:26.647Z,13.08
2023-04-18T21:26:29.274Z,13.05
2023-04-18T21:29:31.875Z,12.97
2023-04-18T21:32:34.432Z,13.07
2023-04-18T21:35:37.047Z,13.00
2023-04-18T21:38:40.916Z,13.00
2023-04-18T21:41:43.456Z,13.05
2023-04-18T21:44:45.983Z,13.03
2023-04-18T21:47:51.211Z,12.98
2023-04-18T21:50:55.015Z,13.00
2023-04-18T21:53:59.036Z,12.98
2023-04-18T21:57:02.616Z,12.94
2023-04-18T22:00:07.219Z,12.97
2023-04-18T22:03:11.273Z,12.87
2023-04-18T22:06:13.903Z,12.85
2023-04-18T22:09:19.271Z,12.86
2023-04-18T22:12:21.791Z,12.84
2023-04-18T22:15:26.796Z,12.75
2023-04-18T22:18:33.902Z,12.73
2023-04-18T22:21:36.781Z,12.75
2023-04-18T22:24:40.619Z,12.71
2023-04-18T22:27:43.554Z,12.76
2023-04-18T22:30:46.129Z,12.70
2023-04-18T22:33:48.702Z,12.70
2023-04-18T22:36:51.287Z,12.69
2023-04-18T22:39:55.227Z,12.70
2023-04-18T22:42:57.847Z,12.54
2023-04-18T22:46:00.699Z,12.77
2023-04-18T22:49:03.305Z,12.79
2023-04-18T22:52:06.196Z,12.80
2023-04-18T22:55:11.008Z,12.80
2023-04-18T22:58:13.716Z,12.75
2023-04-18T23:01:16.400Z,12.74
2023-04-18T23:04:19.516Z,12.74
2023-04-18T23:07:22.434Z,12.70
2023-04-18T23:10:26.424Z,12.75
2023-04-18T23:13:29.025Z,12.77
2023-04-18T23:16:32.422Z,12.76
2023-04-18T23:19:35.008Z,12.70
2023-04-18T23:22:38.450Z,12.69
2023-04-18T23:25:42.285Z,12.68
2023-04-18T23:28:44.942Z,12.65
2023-04-18T23:31:47.597Z,12.66
2023-04-18T23:34:50.234Z,12.62
2023-04-18T23:37:52.853Z,12.60
2023-04-18T23:40:56.702Z,12.51
2023-04-18T23:44:00.082Z,12.46
2023-04-18T23:47:02.682Z,12.54
2023-04-18T23:50:06.073Z,12.53
2023-04-18T23:53:08.610Z,12.41
2023-04-18T23:56:12.479Z,12.35
2023-04-18T23:59:15.031Z,12.26
